createdAt,value
2018-07-26T00:01:11.109Z,95.20
2018-07-26T00:03:41.212Z,95.10
2018-07-26T00:08:40.796Z,94.90
2018-07-26T00:11:10.919Z,95.10
2018-07-26T00:13:41.063Z,94.80
2018-07-26T00:16:11.172Z,95.00
2018-07-26T00:18:41.312Z,95.00
2018-07-26T00:21:11.377Z,95.00
2018-07-26T00:23:41.472Z,95.10
2018-07-26T00:26:11.518Z,95.30
2018-07-26T00:28:41.967Z,95.30
2018-07-26T00:31:12.112Z,95.30
2018-07-26T00:36:11.904Z,95.60
2018-07-26T00:38:42.124Z,95.70
2018-07-26T00:41:12.197Z,95.70
2018-07-26T00:43:42.315Z,96.00
2018-07-26T00:48:41.744Z,96.20
2018-07-26T00:51:11.948Z,96.20
2018-07-26T00:53:42.008Z,96.30
2018-07-26T00:56:12.116Z,96.30
2018-07-26T00:58:42.287Z,96.40
2018-07-26T01:01:12.376Z,96.30
2018-07-26T01:03:42.534Z,96.20
2018-07-26T01:06:12.645Z,96.20
2018-07-26T01:08:42.715Z,96.30
2018-07-26T01:11:12.784Z,96.50
2018-07-26T01:13:42.883Z,96.70
2018-07-26T01:16:12.981Z,96.80
2018-07-26T01:18:43.049Z,96.90
2018-07-26T01:21:13.123Z,97.00
2018-07-26T01:23:43.162Z,97.10
2018-07-26T01:26:13.251Z,97.20
2018-07-26T01:28:43.428Z,97.40
2018-07-26T01:31:13.569Z,97.60
2018-07-26T01:33:44.245Z,97.90
2018-07-26T01:36:14.360Z,98.00
2018-07-26T01:38:44.568Z,98.00
2018-07-26T01:41:14.735Z,98.20
2018-07-26T01:46:32.213Z,98.40
2018-07-26T01:49:02.328Z,98.20
2018-07-26T01:51:32.602Z,98.10
2018-07-26T01:54:02.639Z,98.20
2018-07-26T01:56:32.701Z,98.30
2018-07-26T01:59:02.867Z,98.10
2018-07-26T02:01:33.024Z,98.20
2018-07-26T02:04:03.103Z,98.30
2018-07-26T02:06:33.339Z,98.40
2018-07-26T02:09:03.827Z,98.40
2018-07-26T02:11:34.145Z,98.60
2018-07-26T02:14:04.608Z,98.70
2018-07-26T02:16:34.796Z,99.10
2018-07-26T02:19:05.001Z,99.00
2018-07-26T02:21:35.283Z,99.00
2018-07-26T02:24:05.339Z,99.10
2018-07-26T02:26:35.444Z,99.30
2018-07-26T02:29:05.644Z,99.50
2018-07-26T02:31:35.836Z,99.50
2018-07-26T02:34:06.120Z,99.70
2018-07-26T02:36:36.209Z,99.90
2018-07-26T02:39:08.431Z,99.90
2018-07-26T02:41:38.765Z,99.90
2018-07-26T02:44:08.827Z,99.90
2018-07-26T02:46:38.941Z,99.90
2018-07-26T02:49:09.068Z,99.90
2018-07-26T02:51:39.181Z,99.90
2018-07-26T02:54:09.236Z,99.90
2018-07-26T02:56:39.338Z,99.90
2018-07-26T02:59:09.473Z,99.90
2018-07-26T03:01:39.776Z,99.90
2018-07-26T03:04:09.976Z,99.90
2018-07-26T03:06:40.052Z,99.90
2018-07-26T03:09:10.548Z,99.90
2018-07-26T03:11:40.694Z,99.90
2018-07-26T03:14:10.868Z,99.90
2018-07-26T03:16:41.078Z,99.90
2018-07-26T03:19:11.144Z,99.90
2018-07-26T03:21:41.320Z,99.90
2018-07-26T03:26:41.039Z,99.90
2018-07-26T03:29:11.189Z,99.90
2018-07-26T03:31:41.349Z,99.90
2018-07-26T03:34:11.432Z,99.90
2018-07-26T03:36:41.608Z,99.90
2018-07-26T03:39:11.760Z,99.90
2018-07-26T03:41:41.856Z,99.90
2018-07-26T03:44:12.005Z,99.90
2018-07-26T03:46:42.426Z,99.90
2018-07-26T03:49:12.795Z,99.90
2018-07-26T03:51:42.943Z,99.90
2018-07-26T03:54:13.039Z,99.90
2018-07-26T03:56:43.516Z,99.90
2018-07-26T03:59:13.664Z,99.90
2018-07-26T04:01:43.791Z,99.90
2018-07-26T04:04:13.840Z,99.90
2018-07-26T04:06:44.012Z,99.90
2018-07-26T04:09:15.150Z,99.90
2018-07-26T04:11:46.344Z,99.90
2018-07-26T04:14:16.514Z,99.90
2018-07-26T04:16:46.739Z,99.90
2018-07-26T04:19:16.880Z,99.90
2018-07-26T04:21:47.011Z,99.90
2018-07-26T04:24:17.091Z,99.90
2018-07-26T04:26:47.247Z,99.90
2018-07-26T04:29:17.369Z,99.90
2018-07-26T04:31:47.548Z,99.90
2018-07-26T04:34:17.588Z,99.90
2018-07-26T04:36:47.728Z,99.90
2018-07-26T04:39:17.795Z,99.90
2018-07-26T04:41:47.896Z,99.90
2018-07-26T04:46:47.631Z,99.90
2018-07-26T04:49:17.724Z,99.50
2018-07-26T04:51:47.844Z,99.50
2018-07-26T04:54:17.901Z,99.50
2018-07-26T04:56:48.004Z,99.40
2018-07-26T04:59:18.127Z,99.00
2018-07-26T05:01:48.200Z,99.30
2018-07-26T05:04:18.251Z,98.80
2018-07-26T05:06:48.545Z,99.00
2018-07-26T05:09:18.648Z,99.00
2018-07-26T05:11:48.815Z,98.80
2018-07-26T05:14:18.943Z,98.80
2018-07-26T05:16:49.104Z,98.70
2018-07-26T05:19:19.268Z,98.60
2018-07-26T05:21:49.360Z,98.40
2018-07-26T05:24:19.406Z,98.10
2018-07-26T05:26:49.525Z,98.40
2018-07-26T05:29:19.681Z,98.40
2018-07-26T05:31:49.801Z,98.40
2018-07-26T05:34:19.888Z,98.30
2018-07-26T05:36:49.994Z,97.90
2018-07-26T05:39:20.081Z,97.50
2018-07-26T05:41:50.244Z,97.40
2018-07-26T05:44:20.408Z,97.60
2018-07-26T05:46:50.541Z,97.50
2018-07-26T05:49:21.078Z,97.20
2018-07-26T05:51:51.196Z,96.80
2018-07-26T05:54:21.248Z,96.50
2018-07-26T05:56:51.400Z,96.30
2018-07-26T05:59:21.967Z,96.20
2018-07-26T06:01:52.047Z,95.70
2018-07-26T06:04:52.592Z,95.90
2018-07-26T06:07:22.700Z,96.00
2018-07-26T06:09:52.820Z,95.90
2018-07-26T06:12:22.904Z,95.30
2018-07-26T06:17:22.479Z,94.90
2018-07-26T06:19:52.603Z,94.60
2018-07-26T06:22:23.040Z,94.30
2018-07-26T06:24:53.204Z,93.90
2018-07-26T06:27:23.280Z,94.50
2018-07-26T06:29:53.364Z,94.30
2018-07-26T06:32:23.503Z,94.20
2018-07-26T06:34:53.966Z,94.50
2018-07-26T06:37:24.148Z,94.20
2018-07-26T06:39:54.239Z,94.10
2018-07-26T06:42:24.727Z,93.80
2018-07-26T06:44:54.889Z,93.80
2018-07-26T06:47:25.004Z,94.00
2018-07-26T06:49:55.093Z,93.40
2018-07-26T06:52:25.186Z,93.50
2018-07-26T06:54:55.268Z,93.10
2018-07-26T06:57:25.385Z,93.30
2018-07-26T06:59:55.851Z,93.40
2018-07-26T07:02:25.990Z,93.40
2018-07-26T07:04:56.064Z,92.60
2018-07-26T07:07:26.143Z,92.60
2018-07-26T07:09:56.183Z,91.40
2018-07-26T07:12:26.279Z,92.20
2018-07-26T07:14:56.435Z,91.50
2018-07-26T07:17:26.624Z,91.80
2018-07-26T07:19:56.800Z,91.00
2018-07-26T07:22:26.936Z,90.80
2018-07-26T07:24:57.036Z,91.50
2018-07-26T07:27:27.194Z,91.20
2018-07-26T07:29:57.369Z,89.50
2018-07-26T07:32:27.521Z,90.00
2018-07-26T07:34:57.554Z,91.00
2018-07-26T07:37:27.671Z,88.20
2018-07-26T07:39:57.745Z,87.50
2018-07-26T07:42:27.856Z,89.80
2018-07-26T07:44:57.931Z,88.00
2018-07-26T07:47:28.023Z,89.10
2018-07-26T07:49:58.113Z,88.10
2018-07-26T07:52:29.015Z,87.80
2018-07-26T07:54:59.119Z,89.30
2018-07-26T07:57:29.223Z,87.70
2018-07-26T07:59:59.335Z,87.40
2018-07-26T08:02:29.444Z,89.00
2018-07-26T08:04:59.512Z,85.60
2018-07-26T08:07:29.607Z,85.80
2018-07-26T08:09:59.868Z,84.20
2018-07-26T08:12:30.121Z,83.90
2018-07-26T08:15:00.313Z,83.70
2018-07-26T08:17:30.444Z,84.90
2018-07-26T08:20:00.581Z,82.00
2018-07-26T08:22:30.749Z,81.20
2018-07-26T08:27:30.332Z,79.70
2018-07-26T08:30:00.383Z,81.00
2018-07-26T08:32:35.596Z,80.50
2018-07-26T08:35:05.816Z,80.80
2018-07-26T08:37:35.896Z,80.40
2018-07-26T08:40:06.811Z,78.00
2018-07-26T08:42:36.919Z,78.80
2018-07-26T08:45:07.096Z,81.40
2018-07-26T08:47:37.523Z,76.10
2018-07-26T08:50:07.923Z,76.40
2018-07-26T08:52:37.995Z,73.40
2018-07-26T08:55:08.080Z,74.60
2018-07-26T08:57:38.188Z,75.80
2018-07-26T09:00:08.699Z,77.50
2018-07-26T09:02:38.938Z,76.10
2018-07-26T09:05:09.087Z,75.10
2018-07-26T09:07:39.238Z,75.50
2018-07-26T09:10:09.318Z,75.30
2018-07-26T09:12:39.521Z,73.00
2018-07-26T09:15:09.661Z,74.40
2018-07-26T09:17:39.857Z,72.50
2018-07-26T09:20:10.016Z,72.00
2018-07-26T09:22:40.279Z,70.70
2018-07-26T09:25:10.328Z,71.70
2018-07-26T09:27:40.487Z,73.10
2018-07-26T09:30:11.568Z,69.30
2018-07-26T09:32:42.543Z,70.30
2018-07-26T09:35:12.646Z,69.90
2018-07-26T09:37:42.788Z,70.10
2018-07-26T09:40:12.827Z,65.90
2018-07-26T09:42:42.952Z,65.50
2018-07-26T09:45:12.997Z,65.20
2018-07-26T09:47:43.087Z,65.30
2018-07-26T09:50:13.196Z,64.10
2018-07-26T09:52:43.284Z,62.80
2018-07-26T09:55:13.419Z,64.10
2018-07-26T09:57:43.880Z,65.10
2018-07-26T10:00:18.148Z,63.10
2018-07-26T10:02:48.321Z,63.30
2018-07-26T10:05:18.376Z,61.00
2018-07-26T10:07:48.775Z,63.70
2018-07-26T10:10:18.835Z,64.60
2018-07-26T10:12:48.968Z,65.40
2018-07-26T10:15:19.086Z,66.10
2018-07-26T10:17:49.354Z,64.80
2018-07-26T10:20:19.632Z,61.80
2018-07-26T10:22:49.764Z,63.20
2018-07-26T10:25:19.792Z,62.60
2018-07-26T10:27:49.934Z,63.60
2018-07-26T10:30:19.984Z,62.60
2018-07-26T10:32:50.079Z,62.50
2018-07-26T10:35:20.123Z,63.40
2018-07-26T10:37:50.340Z,63.00
2018-07-26T10:40:20.484Z,63.10
2018-07-26T10:42:50.751Z,63.10
2018-07-26T10:45:20.869Z,64.30
2018-07-26T10:47:51.012Z,63.00
2018-07-26T10:50:21.071Z,62.50
2018-07-26T10:52:51.179Z,63.60
2018-07-26T10:55:21.280Z,62.90
2018-07-26T10:57:51.412Z,60.30
2018-07-26T11:00:21.595Z,59.00
2018-07-26T11:02:51.643Z,60.90
2018-07-26T11:05:21.735Z,58.70
2018-07-26T11:07:51.800Z,58.70
2018-07-26T11:10:21.900Z,56.10
2018-07-26T11:12:51.992Z,58.10
2018-07-26T11:15:27.287Z,58.60
2018-07-26T11:17:57.432Z,56.80
2018-07-26T11:20:27.578Z,56.40
2018-07-26T11:22:57.656Z,56.30
2018-07-26T11:25:27.778Z,57.80
2018-07-26T11:27:57.944Z,58.00
2018-07-26T11:30:28.056Z,59.20
2018-07-26T11:32:58.115Z,58.80
2018-07-26T11:35:28.424Z,58.70
2018-07-26T11:37:58.637Z,59.70
2018-07-26T11:40:28.696Z,59.90
2018-07-26T11:45:28.470Z,60.30
2018-07-26T11:47:58.548Z,59.80
2018-07-26T11:50:28.631Z,59.70
2018-07-26T11:52:59.136Z,59.60
2018-07-26T11:55:29.194Z,61.10
2018-07-26T11:57:59.255Z,60.10
2018-07-26T12:00:29.348Z,60.70
2018-07-26T12:02:59.429Z,62.00
2018-07-26T12:05:29.515Z,64.00
2018-07-26T12:07:59.580Z,64.10
2018-07-26T12:10:29.699Z,64.70
2018-07-26T12:12:59.816Z,63.30
2018-07-26T12:15:29.908Z,61.00
2018-07-26T12:18:00.037Z,58.40
2018-07-26T12:20:30.196Z,55.70
2018-07-26T12:23:00.787Z,55.00
2018-07-26T12:25:30.940Z,52.90
2018-07-26T12:28:01.289Z,52.30
2018-07-26T12:30:31.740Z,51.30
2018-07-26T12:33:01.801Z,52.40
2018-07-26T12:38:01.450Z,52.50
2018-07-26T12:40:31.532Z,52.30
2018-07-26T12:43:02.249Z,50.90
2018-07-26T12:45:32.335Z,48.60
2018-07-26T12:48:02.388Z,51.10
2018-07-26T12:50:32.791Z,52.00
2018-07-26T12:53:02.932Z,49.00
2018-07-26T12:55:33.217Z,47.80
2018-07-26T13:00:33.027Z,47.70
2018-07-26T13:03:03.380Z,50.40
2018-07-26T13:05:33.521Z,49.80
2018-07-26T13:08:03.825Z,49.20
2018-07-26T13:10:33.892Z,48.40
2018-07-26T13:13:04.011Z,46.70
2018-07-26T13:15:34.183Z,47.70
2018-07-26T13:18:04.311Z,47.90
2018-07-26T13:20:34.559Z,48.60
2018-07-26T13:23:04.712Z,51.20
2018-07-26T13:25:34.785Z,52.10
2018-07-26T13:28:04.894Z,53.30
2018-07-26T13:30:35.054Z,52.30
2018-07-26T13:33:05.263Z,49.50
2018-07-26T13:35:35.360Z,47.70
2018-07-26T13:38:05.605Z,46.50
2018-07-26T13:40:35.719Z,46.30
2018-07-26T13:43:05.840Z,46.70
2018-07-26T13:48:05.803Z,48.10
2018-07-26T13:53:05.512Z,48.20
2018-07-26T13:55:35.575Z,49.40
2018-07-26T13:58:06.112Z,49.00
2018-07-26T14:00:36.347Z,48.00
2018-07-26T14:03:06.509Z,47.00
2018-07-26T14:05:36.579Z,47.30
2018-07-26T14:08:06.770Z,47.00
2018-07-26T14:10:36.912Z,47.30
2018-07-26T14:13:07.030Z,45.20
2018-07-26T14:17:01.397Z,44.10
2018-07-26T14:19:31.617Z,42.10
2018-07-26T14:22:01.833Z,42.50
2018-07-26T14:24:31.991Z,42.90
2018-07-26T14:27:02.075Z,42.90
2018-07-26T14:32:01.624Z,43.00
2018-07-26T14:34:31.683Z,41.60
2018-07-26T14:40:54.379Z,44.40
2018-07-26T14:43:24.568Z,46.10
2018-07-26T14:45:54.737Z,45.40
2018-07-26T14:48:24.892Z,45.40
2018-07-26T14:50:55.132Z,47.40
2018-07-26T14:53:25.278Z,49.40
2018-07-26T14:55:55.697Z,48.50
2018-07-26T14:58:26.347Z,47.90
2018-07-26T15:00:56.504Z,49.00
2018-07-26T15:03:26.698Z,49.10
2018-07-26T15:05:56.876Z,49.90
2018-07-26T15:08:27.065Z,48.00
2018-07-26T15:10:57.284Z,48.20
2018-07-26T15:13:28.180Z,48.40
2018-07-26T15:15:58.376Z,47.20
2018-07-26T15:18:28.548Z,48.20
2018-07-26T15:20:58.723Z,49.90
2018-07-26T15:23:28.843Z,50.40
2018-07-26T15:25:59.036Z,50.70
2018-07-26T15:28:29.328Z,50.30
2018-07-26T15:30:59.432Z,50.20
2018-07-26T15:33:29.523Z,51.40
2018-07-26T15:35:59.611Z,51.20
2018-07-26T15:38:29.788Z,51.60
2018-07-26T15:40:59.996Z,50.70
2018-07-26T15:43:30.276Z,48.10
2018-07-26T15:46:00.405Z,46.00
2018-07-26T15:48:30.576Z,46.10
2018-07-26T15:53:30.640Z,48.50
2018-07-26T15:56:00.805Z,48.50
2018-07-26T15:58:31.081Z,47.50
2018-07-26T16:01:01.400Z,48.50
2018-07-26T16:03:31.649Z,50.30
2018-07-26T16:06:01.806Z,51.60
2018-07-26T16:11:01.404Z,50.10
2018-07-26T16:13:31.484Z,47.80
2018-07-26T16:16:01.641Z,45.30
2018-07-26T16:18:31.788Z,45.20
2018-07-26T16:21:01.924Z,48.00
2018-07-26T16:23:32.093Z,49.30
2018-07-26T16:26:02.224Z,50.80
2018-07-26T16:28:32.370Z,50.50
2018-07-26T16:31:02.760Z,51.90
2018-07-26T16:33:32.869Z,51.20
2018-07-26T16:36:03.348Z,51.70
2018-07-26T16:38:33.680Z,51.60
2018-07-26T16:41:03.933Z,50.40
2018-07-26T16:43:34.020Z,49.00
2018-07-26T16:46:04.172Z,49.30
2018-07-26T16:48:34.231Z,48.50
2018-07-26T16:51:04.816Z,48.50
2018-07-26T16:53:34.876Z,48.50
2018-07-26T16:56:05.227Z,47.80
2018-07-26T16:58:35.417Z,46.60
2018-07-26T17:01:05.681Z,46.70
2018-07-26T17:03:35.768Z,46.60
2018-07-26T17:06:05.927Z,46.90
2018-07-26T17:08:36.032Z,47.40
2018-07-26T17:11:18.033Z,48.50
2018-07-26T17:16:17.831Z,50.10
2018-07-26T17:18:48.012Z,49.10
2018-07-26T17:21:18.149Z,49.80
2018-07-26T17:23:48.312Z,49.70
2018-07-26T17:26:18.497Z,50.40
2018-07-26T17:28:48.660Z,52.50
2018-07-26T17:33:48.303Z,56.50
2018-07-26T17:36:18.395Z,57.30
2018-07-26T17:38:48.520Z,57.90
2018-07-26T17:41:18.659Z,59.10
2018-07-26T17:43:48.898Z,60.10
2018-07-26T17:46:19.132Z,60.80
2018-07-26T17:48:49.380Z,61.60
2018-07-26T17:51:19.493Z,62.20
2018-07-26T17:53:49.611Z,62.80
2018-07-26T17:56:19.747Z,63.50
2018-07-26T17:58:49.807Z,66.10
2018-07-26T18:01:20.044Z,65.40
2018-07-26T18:03:50.140Z,65.70
2018-07-26T18:06:20.324Z,63.50
2018-07-26T18:08:50.399Z,61.00
2018-07-26T18:13:50.362Z,60.80
2018-07-26T18:16:20.583Z,61.70
2018-07-26T18:18:50.868Z,60.70
2018-07-26T18:21:21.109Z,61.50
2018-07-26T18:23:51.251Z,63.30
2018-07-26T18:26:36.699Z,65.20
2018-07-26T18:29:06.836Z,66.60
2018-07-26T18:31:37.097Z,67.90
2018-07-26T18:34:07.191Z,68.80
2018-07-26T18:36:37.311Z,69.20
2018-07-26T18:39:11.120Z,69.80
2018-07-26T18:41:41.356Z,70.70
2018-07-26T18:46:41.031Z,72.50
2018-07-26T18:49:11.111Z,73.30
2018-07-26T18:51:41.223Z,73.90
2018-07-26T18:54:11.407Z,74.00
2018-07-26T18:56:41.568Z,74.20
2018-07-26T18:59:11.763Z,75.00
2018-07-26T19:01:41.854Z,75.40
2018-07-26T19:04:36.093Z,75.70
2018-07-26T19:07:06.303Z,75.80
2018-07-26T19:12:05.764Z,75.40
2018-07-26T19:14:36.034Z,75.20
2018-07-26T19:17:06.412Z,76.20
2018-07-26T19:19:36.495Z,75.40
2018-07-26T19:24:36.520Z,75.10
2018-07-26T19:27:06.720Z,75.20
2018-07-26T19:29:36.979Z,75.70
2018-07-26T19:32:07.143Z,75.40
2018-07-26T19:34:37.310Z,76.00
2018-07-26T19:37:07.476Z,76.60
2018-07-26T19:39:37.812Z,75.70
2018-07-26T19:42:08.061Z,76.10
2018-07-26T19:44:38.144Z,76.50
2018-07-26T19:47:08.267Z,75.50
2018-07-26T19:49:38.385Z,76.00
2018-07-26T19:52:08.889Z,76.00
2018-07-26T19:54:38.971Z,76.80
2018-07-26T19:59:39.027Z,77.10
2018-07-26T20:02:09.316Z,76.70
2018-07-26T20:04:39.417Z,77.60
2018-07-26T20:07:09.692Z,78.30
2018-07-26T20:09:39.743Z,78.90
2018-07-26T20:12:09.868Z,79.50
